createdAt,value
2018-09-10T00:00:09.107Z,95298.55
2018-09-10T00:02:37.901Z,95293.92
2018-09-10T00:05:08.434Z,95297.30
2018-09-10T00:07:37.239Z,95299.66
2018-09-10T00:10:06.192Z,95299.30
2018-09-10T00:12:35.030Z,95291.53
2018-09-10T00:15:03.966Z,95288.88
2018-09-10T00:17:32.735Z,95290.02
2018-09-10T00:20:01.550Z,95294.77
2018-09-10T00:22:30.324Z,95287.27
2018-09-10T00:24:59.081Z,95288.02
2018-09-10T00:27:27.931Z,95292.41
2018-09-10T00:29:56.660Z,95289.40
2018-09-10T00:32:25.495Z,95295.73
2018-09-10T00:34:54.292Z,95291.05
2018-09-10T00:37:23.039Z,95292.27
2018-09-10T00:39:52.263Z,95297.09
2018-09-10T00:42:21.059Z,95295.02
2018-09-10T00:44:49.878Z,95300.55
2018-09-10T00:47:18.656Z,95298.25
2018-09-10T00:49:47.424Z,95301.20
2018-09-10T00:52:16.236Z,95302.30
2018-09-10T00:54:45.116Z,95304.79
2018-09-10T00:57:13.948Z,95303.24
2018-09-10T00:59:42.732Z,95300.88
2018-09-10T01:02:11.543Z,95297.64
2018-09-10T01:04:40.314Z,95299.78
2018-09-10T01:07:09.101Z,95300.30
2018-09-10T01:09:37.914Z,95307.52
2018-09-10T01:12:06.717Z,95308.39
2018-09-10T01:14:35.505Z,95301.62
2018-09-10T01:17:04.303Z,95308.25
2018-09-10T01:19:33.110Z,95301.55
2018-09-10T01:22:01.938Z,95306.59
2018-09-10T01:24:30.750Z,95307.59
2018-09-10T01:26:59.529Z,95307.52
2018-09-10T01:29:28.371Z,95308.33
2018-09-10T01:31:57.158Z,95309.95
2018-09-10T01:34:31.310Z,95307.22
2018-09-10T01:37:00.112Z,95309.30
2018-09-10T01:39:29.332Z,95311.68
2018-09-10T01:41:58.113Z,95311.42
2018-09-10T01:44:26.916Z,95311.13
2018-09-10T01:46:55.720Z,95310.06
2018-09-10T01:49:24.526Z,95309.55
2018-09-10T01:51:53.298Z,95309.70
2018-09-10T01:54:22.116Z,95311.18
2018-09-10T01:56:50.890Z,95313.66
2018-09-10T01:59:19.743Z,95315.45
2018-09-10T02:01:49.432Z,95317.08
2018-09-10T02:04:18.291Z,95316.56
2018-09-10T02:06:47.120Z,95316.16
2018-09-10T02:09:15.976Z,95320.06
2018-09-10T02:11:44.754Z,95324.40
2018-09-10T02:14:13.548Z,95322.48
2018-09-10T02:16:42.355Z,95321.63
2018-09-10T02:19:11.173Z,95322.95
2018-09-10T02:21:39.999Z,95322.70
2018-09-10T02:24:08.740Z,95324.84
2018-09-10T02:26:37.508Z,95318.88
2018-09-10T02:29:06.525Z,95319.09
2018-09-10T02:31:35.597Z,95322.05
2018-09-10T02:34:04.423Z,95326.61
2018-09-10T02:36:33.243Z,95325.72
2018-09-10T02:39:02.187Z,95322.78
2018-09-10T02:41:30.994Z,95318.39
2018-09-10T02:43:59.791Z,95318.84
2018-09-10T02:46:28.592Z,95318.43
2018-09-10T02:48:57.538Z,95322.45
2018-09-10T02:51:26.406Z,95321.93
2018-09-10T02:53:55.174Z,95316.52
2018-09-10T02:56:24.013Z,95318.09
2018-09-10T02:58:52.872Z,95316.78
2018-09-10T03:01:21.702Z,95325.64
2018-09-10T03:03:50.535Z,95322.10
2018-09-10T03:06:19.370Z,95322.59
2018-09-10T03:08:48.506Z,95327.88
2018-09-10T03:11:17.340Z,95327.73
2018-09-10T03:13:46.131Z,95322.72
2018-09-10T03:16:14.950Z,95324.90
2018-09-10T03:18:43.743Z,95328.87
2018-09-10T03:21:12.524Z,95324.05
2018-09-10T03:23:41.399Z,95326.99
2018-09-10T03:26:10.192Z,95331.23
2018-09-10T03:28:38.965Z,95331.48
2018-09-10T03:31:08.359Z,95327.77
2018-09-10T03:33:37.218Z,95329.56
2018-09-10T03:36:06.208Z,95325.95
2018-09-10T03:38:35.071Z,95329.41
2018-09-10T03:41:03.863Z,95334.49
2018-09-10T03:43:32.636Z,95337.08
2018-09-10T03:46:01.496Z,95332.77
2018-09-10T03:48:30.300Z,95334.61
2018-09-10T03:50:59.191Z,95336.74
2018-09-10T03:53:27.961Z,95335.41
2018-09-10T03:55:57.000Z,95330.64
2018-09-10T03:58:25.816Z,95335.86
2018-09-10T04:00:54.615Z,95330.70
2018-09-10T04:03:23.445Z,95336.42
2018-09-10T04:05:52.210Z,95340.54
2018-09-10T04:08:21.051Z,95337.03
2018-09-10T04:10:49.826Z,95334.23
2018-09-10T04:13:18.915Z,95338.66
2018-09-10T04:15:47.888Z,95340.98
2018-09-10T04:18:16.647Z,95338.70
2018-09-10T04:20:45.418Z,95340.06
2018-09-10T04:23:14.307Z,95337.05
2018-09-10T04:25:43.181Z,95343.53
2018-09-10T04:28:11.989Z,95342.05
2018-09-10T04:30:40.816Z,95347.28
2018-09-10T04:33:09.805Z,95345.62
2018-09-10T04:35:38.576Z,95342.38
2018-09-10T04:38:07.351Z,95354.67
2018-09-10T04:40:36.111Z,95348.27
2018-09-10T04:43:04.916Z,95347.17
2018-09-10T04:45:33.711Z,95348.27
2018-09-10T04:48:02.494Z,95344.25
2018-09-10T04:50:31.276Z,95341.12
2018-09-10T04:53:00.052Z,95342.45
2018-09-10T04:55:28.870Z,95343.66
2018-09-10T04:57:57.717Z,95351.42
2018-09-10T05:00:26.883Z,95348.92
2018-09-10T05:02:55.696Z,95346.95
2018-09-10T05:05:24.522Z,95354.31
2018-09-10T05:07:53.320Z,95352.77
2018-09-10T05:10:22.079Z,95349.58
2018-09-10T05:12:50.844Z,95347.52
2018-09-10T05:15:19.681Z,95348.42
2018-09-10T05:17:48.519Z,95345.69
2018-09-10T05:20:17.302Z,95343.78
2018-09-10T05:22:46.077Z,95348.61
2018-09-10T05:25:14.892Z,95348.80
2018-09-10T05:27:43.884Z,95345.92
2018-09-10T05:30:12.775Z,95346.30
2018-09-10T05:32:41.574Z,95337.83
2018-09-10T05:35:10.363Z,95349.18
2018-09-10T05:37:39.151Z,95342.45
2018-09-10T05:40:09.378Z,95346.47
2018-09-10T05:42:38.176Z,95350.29
2018-09-10T05:45:09.376Z,95347.93
2018-09-10T05:47:38.224Z,95344.17
2018-09-10T05:50:08.003Z,95347.88
2018-09-10T05:52:36.936Z,95345.38
2018-09-10T05:55:05.841Z,95340.00
2018-09-10T05:57:34.732Z,95341.84
2018-09-10T06:00:05.439Z,95345.60
2018-09-10T06:02:34.218Z,95348.12
2018-09-10T06:05:02.993Z,95353.40
2018-09-10T06:07:31.716Z,95348.04
2018-09-10T06:10:00.486Z,95348.97
2018-09-10T06:12:29.313Z,95358.45
2018-09-10T06:14:58.102Z,95362.47
2018-09-10T06:17:26.981Z,95360.91
2018-09-10T06:19:55.788Z,95362.95
2018-09-10T06:22:24.603Z,95359.42
2018-09-10T06:24:53.362Z,95359.76
2018-09-10T06:27:22.207Z,95365.07
2018-09-10T06:29:51.015Z,95370.55
2018-09-10T06:32:19.831Z,95358.97
2018-09-10T06:34:48.662Z,95361.91
2018-09-10T06:37:17.498Z,95355.39
2018-09-10T06:39:46.475Z,95353.31
2018-09-10T06:42:15.449Z,95349.75
2018-09-10T06:44:44.234Z,95362.88
2018-09-10T06:47:13.026Z,95365.63
2018-09-10T06:49:41.812Z,95362.20
2018-09-10T06:52:10.662Z,95356.12
2018-09-10T06:54:39.479Z,95360.75
2018-09-10T06:57:08.353Z,95361.94
2018-09-10T06:59:37.145Z,95360.58
2018-09-10T07:02:05.912Z,95358.61
2018-09-10T07:04:34.781Z,95367.25
2018-09-10T07:07:03.672Z,95369.53
2018-09-10T07:09:32.942Z,95366.80
2018-09-10T07:12:01.796Z,95368.94
2018-09-10T07:14:30.656Z,95371.04
2018-09-10T07:16:59.488Z,95375.36
2018-09-10T07:19:28.279Z,95373.06
2018-09-10T07:21:57.055Z,95382.34
2018-09-10T07:24:25.821Z,95380.92
2018-09-10T07:26:54.618Z,95374.86
2018-09-10T07:29:23.402Z,95382.56
2018-09-10T07:31:52.282Z,95385.08
2018-09-10T07:34:21.076Z,95379.98
2018-09-10T07:36:49.905Z,95380.38
2018-09-10T07:39:18.718Z,95375.49
2018-09-10T07:41:47.547Z,95377.20
2018-09-10T07:44:16.397Z,95372.17
2018-09-10T07:46:45.370Z,95377.38
2018-09-10T07:49:14.634Z,95381.66
2018-09-10T07:51:43.433Z,95380.89
2018-09-10T07:54:12.334Z,95371.86
2018-09-10T07:56:41.127Z,95368.28
2018-09-10T07:59:10.356Z,95373.21
2018-09-10T08:01:39.147Z,95376.17
2018-09-10T08:04:07.913Z,95379.19
2018-09-10T08:06:36.681Z,95366.96
2018-09-10T08:09:07.805Z,95367.00
2018-09-10T08:11:36.868Z,95365.70
2018-09-10T08:14:05.739Z,95369.82
2018-09-10T08:16:34.813Z,95359.24
2018-09-10T08:19:03.905Z,95362.58
2018-09-10T08:21:32.712Z,95366.26
2018-09-10T08:24:01.589Z,95352.81
2018-09-10T08:26:30.588Z,95362.71
2018-09-10T08:28:59.404Z,95367.55
2018-09-10T08:31:28.183Z,95370.75
2018-09-10T08:33:57.233Z,95365.70
2018-09-10T08:36:26.046Z,95359.34
2018-09-10T08:38:54.910Z,95359.77
2018-09-10T08:41:23.747Z,95360.08
2018-09-10T08:43:52.600Z,95349.41
2018-09-10T08:46:21.485Z,95351.30
2018-09-10T08:48:50.285Z,95349.94
2018-09-10T08:51:19.124Z,95344.82
2018-09-10T08:53:47.970Z,95348.41
2018-09-10T08:56:17.070Z,95341.84
2018-09-10T08:58:45.800Z,95348.34
2018-09-10T09:01:14.622Z,95349.75
2018-09-10T09:03:43.537Z,95331.34
2018-09-10T09:06:12.415Z,95330.25
2018-09-10T09:08:41.401Z,95342.45
2018-09-10T09:11:10.459Z,95343.88
2018-09-10T09:13:39.300Z,95341.09
2018-09-10T09:16:08.125Z,95341.77
2018-09-10T09:18:36.941Z,95340.71
2018-09-10T09:21:05.758Z,95342.59
2018-09-10T09:23:34.734Z,95333.00
2018-09-10T09:26:03.679Z,95333.50
2018-09-10T09:28:32.491Z,95342.34
2018-09-10T09:31:01.308Z,95346.38
2018-09-10T09:33:30.102Z,95340.04
2018-09-10T09:36:04.270Z,95334.14
2018-09-10T09:38:40.043Z,95333.59
2018-09-10T09:41:14.160Z,95322.91
2018-09-10T09:43:48.096Z,95329.92
2018-09-10T09:46:18.723Z,95337.97
2018-09-10T09:48:47.522Z,95328.63
2018-09-10T09:51:16.664Z,95328.36
2018-09-10T09:53:45.570Z,95326.22
2018-09-10T09:56:14.476Z,95325.09
2018-09-10T09:58:43.284Z,95331.74
2018-09-10T10:01:17.199Z,95333.36
2018-09-10T10:03:51.146Z,95328.02
2018-09-10T10:06:19.948Z,95329.39
2018-09-10T10:08:48.719Z,95338.23
2018-09-10T10:11:17.570Z,95329.13
2018-09-10T10:13:46.522Z,95339.03
2018-09-10T10:16:15.300Z,95321.15
2018-09-10T10:18:44.427Z,95321.16
2018-09-10T10:21:13.240Z,95323.29
2018-09-10T10:23:42.104Z,95306.45
2018-09-10T10:26:10.915Z,95315.00
2018-09-10T10:28:39.691Z,95310.47
2018-09-10T10:31:08.436Z,95311.27
2018-09-10T10:33:37.224Z,95308.06
2018-09-10T10:36:06.062Z,95304.56
2018-09-10T10:38:34.862Z,95297.39
2018-09-10T10:41:03.596Z,95301.40
2018-09-10T10:43:33.247Z,95306.42
2018-09-10T10:46:02.128Z,95308.28
2018-09-10T10:48:30.981Z,95293.56
2018-09-10T10:50:59.907Z,95297.59
2018-09-10T10:53:28.732Z,95305.11
2018-09-10T10:55:57.615Z,95300.55
2018-09-10T10:58:26.445Z,95300.28
2018-09-10T11:00:55.267Z,95290.37
2018-09-10T11:03:24.162Z,95293.03
2018-09-10T11:05:53.010Z,95282.63
2018-09-10T11:08:21.845Z,95289.03
2018-09-10T11:10:50.648Z,95285.55
2018-09-10T11:13:19.420Z,95302.15
2018-09-10T11:15:48.250Z,95281.30
2018-09-10T11:18:17.201Z,95286.38
2018-09-10T11:20:46.093Z,95289.05
2018-09-10T11:23:14.871Z,95289.86
2018-09-10T11:25:43.727Z,95278.61
2018-09-10T11:28:12.688Z,95273.00
2018-09-10T11:30:41.457Z,95265.45
2018-09-10T11:33:10.253Z,95286.08
2018-09-10T11:35:39.085Z,95270.56
2018-09-10T11:38:07.969Z,95266.01
2018-09-10T11:40:36.772Z,95268.94
2018-09-10T11:43:05.538Z,95267.34
2018-09-10T11:45:34.594Z,95261.95
2018-09-10T11:48:03.489Z,95260.34
2018-09-10T11:50:32.329Z,95256.83
2018-09-10T11:53:01.125Z,95261.12
2018-09-10T11:55:29.953Z,95261.66
2018-09-10T11:57:58.791Z,95259.21
2018-09-10T12:00:27.640Z,95264.07
2018-09-10T12:02:56.426Z,95257.56
2018-09-10T12:05:25.187Z,95261.99
2018-09-10T12:07:53.978Z,95252.65
2018-09-10T12:10:22.785Z,95247.55
2018-09-10T12:12:51.574Z,95245.63
2018-09-10T12:15:20.368Z,95247.50
2018-09-10T12:17:49.142Z,95239.14
2018-09-10T12:20:18.063Z,95239.11
2018-09-10T12:22:46.841Z,95251.42
2018-09-10T12:25:15.679Z,95247.41
2018-09-10T12:27:44.533Z,95241.28
2018-09-10T12:30:13.336Z,95268.91
2018-09-10T12:32:42.188Z,95254.44
2018-09-10T12:35:11.023Z,95241.01
2018-09-10T12:37:39.790Z,95241.55
2018-09-10T12:40:08.592Z,95243.39
2018-09-10T12:42:37.364Z,95247.41
2018-09-10T12:45:06.959Z,95239.36
2018-09-10T12:47:35.853Z,95241.73
2018-09-10T12:50:05.155Z,95232.61
2018-09-10T12:52:33.949Z,95261.27
2018-09-10T12:55:02.772Z,95234.37
2018-09-10T12:57:31.539Z,95221.96
2018-09-10T13:00:00.350Z,95233.30
2018-09-10T13:02:29.832Z,95229.73
2018-09-10T13:04:58.635Z,95231.13
2018-09-10T13:07:27.407Z,95236.67
2018-09-10T13:09:56.283Z,95230.52
2018-09-10T13:12:25.105Z,95235.16
2018-09-10T13:14:53.990Z,95229.29
2018-09-10T13:17:22.847Z,95229.37
2018-09-10T13:19:51.602Z,95228.53
2018-09-10T13:22:20.378Z,95227.56
2018-09-10T13:24:49.341Z,95230.78
2018-09-10T13:27:18.127Z,95224.07
2018-09-10T13:29:46.965Z,95226.27
2018-09-10T13:32:15.967Z,95239.41
2018-09-10T13:34:44.751Z,95252.30
2018-09-10T13:37:13.539Z,95254.22
2018-09-10T13:39:42.377Z,95255.91
2018-09-10T13:42:11.165Z,95233.66
2018-09-10T13:44:40.640Z,95233.34
2018-09-10T13:47:09.572Z,95226.85
2018-09-10T13:49:38.394Z,95235.13
2018-09-10T13:52:07.214Z,95232.23
2018-09-10T13:54:36.105Z,95222.63
2018-09-10T13:57:04.912Z,95242.78
2018-09-10T13:59:33.729Z,95239.57
2018-09-10T14:02:02.617Z,95240.10
2018-09-10T14:04:31.418Z,95224.05
2018-09-10T14:07:00.276Z,95228.34
2018-09-10T14:09:29.048Z,95231.07
2018-09-10T14:11:57.933Z,95225.94
2018-09-10T14:14:26.767Z,95232.33
2018-09-10T14:16:55.696Z,95224.09
2018-09-10T14:19:24.633Z,95230.22
2018-09-10T14:21:53.465Z,95225.30
2018-09-10T14:24:22.276Z,95229.59
2018-09-10T14:26:51.103Z,95240.59
2018-09-10T14:29:19.891Z,95232.36
2018-09-10T14:31:48.794Z,95235.89
2018-09-10T14:34:17.630Z,95228.66
2018-09-10T14:36:46.818Z,95231.33
2018-09-10T14:39:15.610Z,95235.93
2018-09-10T14:41:44.486Z,95222.53
2018-09-10T14:44:13.381Z,95233.21
2018-09-10T14:46:42.213Z,95225.13
2018-09-10T14:49:11.054Z,95233.44
2018-09-10T14:51:39.940Z,95219.55
2018-09-10T14:54:08.790Z,95230.30
2018-09-10T14:56:37.614Z,95226.81
2018-09-10T14:59:06.503Z,95228.96
2018-09-10T15:01:35.255Z,95239.14
2018-09-10T15:04:04.081Z,95231.11
2018-09-10T15:06:32.866Z,95236.20
2018-09-10T15:09:01.661Z,95238.34
2018-09-10T15:11:30.454Z,95237.57
2018-09-10T15:13:59.324Z,95236.20
2018-09-10T15:16:28.087Z,95244.51
2018-09-10T15:18:57.033Z,95230.58
2018-09-10T15:21:25.979Z,95249.06
2018-09-10T15:23:54.778Z,95246.38
2018-09-10T15:26:24.240Z,95251.47
2018-09-10T15:28:53.017Z,95243.44
2018-09-10T15:31:21.823Z,95249.33
2018-09-10T15:33:50.690Z,95245.34
2018-09-10T15:36:19.523Z,95251.77
2018-09-10T15:38:48.291Z,95245.37
2018-09-10T15:41:17.206Z,95256.36
2018-09-10T15:43:46.088Z,95257.45
2018-09-10T15:46:14.903Z,95269.52
2018-09-10T15:48:43.646Z,95264.98
2018-09-10T15:51:12.461Z,95267.12
2018-09-10T15:53:41.454Z,95270.62
2018-09-10T15:56:10.382Z,95273.55
2018-09-10T15:58:39.170Z,95273.23
2018-09-10T16:01:07.981Z,95274.84
2018-09-10T16:03:36.843Z,95271.66
2018-09-10T16:06:05.644Z,95265.75
2018-09-10T16:08:34.486Z,95270.84
2018-09-10T16:11:03.247Z,95276.69
2018-09-10T16:13:31.995Z,95267.60
2018-09-10T16:16:00.833Z,95278.28
2018-09-10T16:18:29.679Z,95277.45
2018-09-10T16:20:58.426Z,95276.61
2018-09-10T16:23:27.323Z,95280.06
2018-09-10T16:25:56.314Z,95277.63
2018-09-10T16:28:25.156Z,95283.77
2018-09-10T16:30:54.037Z,95279.20
2018-09-10T16:33:23.030Z,95283.20
2018-09-10T16:35:51.916Z,95282.91
2018-09-10T16:38:20.822Z,95286.88
2018-09-10T16:40:49.560Z,95288.71
2018-09-10T16:43:18.442Z,95296.97
2018-09-10T16:45:47.199Z,95293.20
2018-09-10T16:48:16.020Z,95297.19
2018-09-10T16:50:45.008Z,95301.70
2018-09-10T16:53:13.802Z,95304.65
2018-09-10T16:55:42.615Z,95301.45
2018-09-10T16:58:11.412Z,95307.55
2018-09-10T17:00:40.307Z,95303.70
2018-09-10T17:03:09.279Z,95310.06
2018-09-10T17:05:38.094Z,95309.23
2018-09-10T17:08:07.228Z,95314.04
2018-09-10T17:10:35.997Z,95311.59
2018-09-10T17:13:04.911Z,95318.23
2018-09-10T17:15:33.752Z,95317.16
2018-09-10T17:18:02.595Z,95322.20
2018-09-10T17:20:31.369Z,95319.55
2018-09-10T17:23:00.394Z,95330.20
2018-09-10T17:25:29.222Z,95334.70
2018-09-10T17:27:58.035Z,95336.51
2018-09-10T17:30:26.918Z,95342.87
2018-09-10T17:32:55.948Z,95346.59
2018-09-10T17:35:24.763Z,95343.33
2018-09-10T17:37:53.658Z,95344.67
2018-09-10T17:40:22.443Z,95345.97
2018-09-10T17:42:51.472Z,95347.92
2018-09-10T17:45:20.271Z,95355.37
2018-09-10T17:47:49.154Z,95353.45
2018-09-10T17:50:17.946Z,95360.64
2018-09-10T17:52:46.935Z,95364.64
2018-09-10T17:55:15.759Z,95367.03
2018-09-10T17:57:44.561Z,95364.33
2018-09-10T18:00:15.902Z,95371.17
2018-09-10T18:02:44.696Z,95380.96
2018-09-10T18:05:13.475Z,95381.45
2018-09-10T18:07:42.358Z,95380.08
2018-09-10T18:10:11.452Z,95377.66
2018-09-10T18:12:40.263Z,95380.20
2018-09-10T18:15:09.452Z,95379.11
2018-09-10T18:17:38.279Z,95387.11
2018-09-10T18:20:07.494Z,95381.74
2018-09-10T18:22:36.606Z,95392.37
2018-09-10T18:25:05.902Z,95392.65
2018-09-10T18:27:34.663Z,95399.56
2018-09-10T18:30:07.363Z,95394.22
2018-09-10T18:32:36.498Z,95394.98
2018-09-10T18:35:05.318Z,95399.46
2018-09-10T18:37:34.123Z,95397.52
2018-09-10T18:40:03.016Z,95402.53
2018-09-10T18:42:32.045Z,95403.53
2018-09-10T18:45:00.835Z,95397.06
2018-09-10T18:47:30.335Z,95403.48
2018-09-10T18:50:00.008Z,95399.72
2018-09-10T18:52:28.819Z,95400.95
2018-09-10T18:54:57.622Z,95408.58
2018-09-10T18:57:26.445Z,95406.97
2018-09-10T18:59:55.254Z,95407.44
2018-09-10T19:02:24.086Z,95401.75
2018-09-10T19:04:52.870Z,95403.59
2018-09-10T19:07:21.650Z,95408.34
2018-09-10T19:09:50.508Z,95411.48
2018-09-10T19:12:20.787Z,95418.61
2018-09-10T19:14:49.772Z,95411.62
2018-09-10T19:17:18.571Z,95411.62
2018-09-10T19:19:47.476Z,95418.27
2018-09-10T19:22:17.350Z,95417.41
2018-09-10T19:24:46.214Z,95423.72
2018-09-10T19:27:15.059Z,95419.43
2018-09-10T19:29:43.921Z,95424.70
2018-09-10T19:32:12.754Z,95419.63
2018-09-10T19:34:42.030Z,95420.66
2018-09-10T19:37:10.848Z,95423.80
2018-09-10T19:39:40.120Z,95427.91
2018-09-10T19:42:09.193Z,95426.17
2018-09-10T19:44:37.973Z,95424.77
2018-09-10T19:47:07.227Z,95429.88
2018-09-10T19:49:36.051Z,95438.08
2018-09-10T19:52:05.296Z,95436.63
2018-09-10T19:54:34.087Z,95442.07
2018-09-10T19:57:02.942Z,95439.67
2018-09-10T19:59:33.451Z,95445.80
2018-09-10T20:02:02.762Z,95436.63
2018-09-10T20:04:31.536Z,95442.64
2018-09-10T20:07:00.470Z,95446.34
2018-09-10T20:09:29.374Z,95439.48
2018-09-10T20:11:58.182Z,95439.58
2018-09-10T20:14:26.986Z,95442.24
2018-09-10T20:16:55.893Z,95442.06
2018-09-10T20:19:24.910Z,95441.59
2018-09-10T20:21:53.753Z,95441.78
2018-09-10T20:24:22.749Z,95441.93
2018-09-10T20:26:51.554Z,95440.26
2018-09-10T20:29:20.415Z,95439.13
2018-09-10T20:31:49.264Z,95441.01
2018-09-10T20:34:18.092Z,95448.70
2018-09-10T20:36:46.936Z,95443.64
2018-09-10T20:39:15.784Z,95441.59
2018-09-10T20:41:44.570Z,95441.88
2018-09-10T20:44:13.352Z,95445.38
2018-09-10T20:46:42.110Z,95448.77
2018-09-10T20:49:10.897Z,95445.01
2018-09-10T20:51:39.709Z,95445.99
2018-09-10T20:54:08.506Z,95449.86
2018-09-10T20:56:37.288Z,95459.52
2018-09-10T20:59:06.109Z,95460.84
2018-09-10T21:01:35.255Z,95455.81
2018-09-10T21:04:04.078Z,95455.81
2018-09-10T21:06:33.038Z,95458.45
2018-09-10T21:09:01.815Z,95455.44
2018-09-10T21:11:30.602Z,95452.95
2018-09-10T21:13:59.401Z,95454.94
2018-09-10T21:16:28.211Z,95454.27
2018-09-10T21:18:56.962Z,95453.69
2018-09-10T21:21:25.756Z,95451.98
2018-09-10T21:23:54.585Z,95453.77
2018-09-10T21:26:23.453Z,95452.67
2018-09-10T21:28:52.362Z,95449.86
2018-09-10T21:31:21.280Z,95452.97
2018-09-10T21:33:50.127Z,95448.38
2018-09-10T21:36:19.084Z,95445.48
2018-09-10T21:38:47.872Z,95448.28
2018-09-10T21:41:16.682Z,95444.16
2018-09-10T21:43:45.466Z,95448.14
2018-09-10T21:46:14.344Z,95449.18
2018-09-10T21:48:43.384Z,95450.22
2018-09-10T21:51:12.210Z,95445.69
2018-09-10T21:53:41.323Z,95440.51
2018-09-10T21:56:10.317Z,95449.28
2018-09-10T21:58:41.737Z,95448.30
2018-09-10T22:01:12.147Z,95453.42
2018-09-10T22:03:41.810Z,95452.81
2018-09-10T22:06:11.381Z,95447.04
2018-09-10T22:08:40.383Z,95451.87
2018-09-10T22:11:09.453Z,95451.29
2018-09-10T22:13:38.356Z,95451.70
2018-09-10T22:16:07.655Z,95457.76
2018-09-10T22:18:36.530Z,95452.22
2018-09-10T22:21:05.485Z,95450.28
2018-09-10T22:23:34.353Z,95449.80
2018-09-10T22:26:03.132Z,95451.87
2018-09-10T22:28:31.983Z,95449.69
2018-09-10T22:31:00.946Z,95450.89
2018-09-10T22:33:29.824Z,95450.78
2018-09-10T22:35:58.753Z,95454.54
2018-09-10T22:38:27.554Z,95455.16
2018-09-10T22:40:56.344Z,95450.78
2018-09-10T22:43:25.267Z,95451.81
2018-09-10T22:45:54.174Z,95452.63
2018-09-10T22:48:23.007Z,95453.73
2018-09-10T22:50:51.922Z,95455.92
2018-09-10T22:53:20.791Z,95449.44
2018-09-10T22:55:49.565Z,95448.85
2018-09-10T22:58:18.337Z,95447.48
2018-09-10T23:00:47.489Z,95446.16
2018-09-10T23:03:16.377Z,95442.99
2018-09-10T23:05:45.216Z,95444.32
2018-09-10T23:08:13.977Z,95440.49
2018-09-10T23:10:42.819Z,95444.18
2018-09-10T23:13:11.691Z,95446.31
2018-09-10T23:15:40.542Z,95444.18
2018-09-10T23:18:09.420Z,95449.38
2018-09-10T23:20:38.341Z,95446.25
2018-09-10T23:23:07.306Z,95446.42
2018-09-10T23:25:36.224Z,95444.36
2018-09-10T23:28:05.093Z,95441.08
2018-09-10T23:30:34.029Z,95442.28
2018-09-10T23:33:02.875Z,95437.67
2018-09-10T23:35:31.649Z,95442.13
2018-09-10T23:38:00.419Z,95444.02
2018-09-10T23:40:29.235Z,95435.72
2018-09-10T23:42:58.118Z,95440.96
2018-09-10T23:45:26.995Z,95438.08
2018-09-10T23:47:55.884Z,95435.87
2018-09-10T23:50:24.699Z,95441.89
2018-09-10T23:52:53.562Z,95442.18
2018-09-10T23:55:22.686Z,95440.56
2018-09-10T23:57:51.523Z,95438.20
